Youngsville, PA

1:15 AM EDT on August 01, 2014 (GMT -0400)
Brokenstraw Airport (KPAPITTS30) Elev 1235 ft | 41.83 °N, 79.36 °W | Change Station

Current weather conditions updated 6 seconds ago

Clear
Clear
51.4 °F
Feels Like 51.4 °F
N
0.0
Wind Variable Wind from West
Gusts 0.0 mph

Today is forecast to be Warmer than yesterday. Afternoon showers and thunderstorms.

Today
High -- | Low -- °F
--% Chance of Precip.
Yesterday
High -- | Low -- °F
Precip. -- in
6:11 AM 8:35 PM
Waxing Crescent, 23% visible
Pressure 30.13 in
Visibility 10.0 miles
Clouds Clear
Dew Point 51 °F
Humidity 98%
Rainfall 0.00 in
Snow Depth Not available.
UV 0 out of 12
Pollen 6.70 out of 12
Air Quality Not available.
Flu Activity Not available.
METAR KJHW 010455Z AUTO 19005KT 10SM CLR 13/10 A3013 RMK AO1

More Conditions Fewer Conditions

Pressure 30.13 in
Visibility 10.0 miles
Clouds Clear
Dew Point 51 °F
Humidity 98%
Rainfall 0.00 in
Snow Depth Not available.
UV 0 out of 12
Pollen 6.70 out of 12
Air Quality Not available.
Flu Activity Not available.
METAR KJHW 010455Z AUTO 19005KT 10SM CLR 13/10 A3013 RMK AO1

More Conditions Fewer Conditions

10-Day Weather Forecast

Almanac

Astronomy

Aug. 01, 2014 Rise Set
Actual Time 6:11 AM EDT 8:35 PM EDT
Civil Twilight 5:39 AM EDT 9:06 PM EDT
Nautical Twilight 5:00 AM EDT 9:45 PM EDT
Astronomical Twilight 4:17 AM EDT 10:28 PM EDT
Moon 11:39 AM EDT 11:12 PM EDT
Length of Visible Light 15h 27m
Length of Day
14h 24m
Tomorrow will be 2m 9s shorter.
Waxing Crescent, 23% of the Moon is Illuminated
Today
Waxing Crescent
Aug 3
First Quarter
Aug 10
Full
Aug 17
Last Quarter
Aug 25
New

Today's Extremes

State Highs State Lows

Community

WunderPhotos

Upload Photos

1,739,516 photos uploaded!

Nearby

Snow Depth

Station Depth Elevation
No new snow has been reported.

Earthquake Activity

City Distance Mag. Time & Date
No recent earthquake activity has been reported nearby.
Minimum magnitude displayed is 2.5.

Coastal Water Temperatures

Place Temperature
No Stations Reporting

Nearby Weather Stations

Station Location Temp. Dew Point Humidity Wind Precip. Elev Updated Type
Brokenstraw Airport, Pittsfield, PA 51.4 °F 51 °F 98% West  at  0.0 mph 0.00 in / hr 1235 ft 1:15 AM EDT Rapid Fire
East Lakewood Weather, Lakewood, NY 56.0 °F 54 °F 93% ENE  at  0.0 mph 0.00 in / hr 1325 ft 1:15 AM EDT Rapid Fire
Parts Plus/Dan Backus Memorial Weather S, Jamestown, NY 53.9 °F 52 °F 92% North  at  0.0 mph 0.00 in / hr 1250 ft 1:15 AM EDT Rapid Fire
Dutch Hollow Rd by VFW, Bemus Point, NY 60.2 °F 52 °F 74% WSW  at  0.0 mph 0.00 in / hr 1772 ft 1:15 AM EDT Normal

Show More Stations Show Fewer Stations